Stations météo

réclame
Mon MeteoGroup
Großer Arber, Allemagne (10791): Température de l'air & dewpoint: 16.10.2019 11:00:00 - 22.10.2019 11:00:00 (CEST)Großer Arber, Allemagne (10791): Vitesse du vent & gusts: 16.10.2019 11:00:00 - 22.10.2019 11:00:00 (CEST)Großer Arber, Allemagne (10791): Direction du vent: 16.10.2019 11:00:00 - 22.10.2019 11:00:00 (CEST)Großer Arber, Allemagne (10791): visibility: 16.10.2019 11:00:00 - 22.10.2019 11:00:00 (CEST)Großer Arber, Allemagne (10791): Ensoleillement: 16.10.2019 11:00:00 - 22.10.2019 11:00:00 (CEST)Großer Arber, Allemagne (10791): Quantités de précipitations: 16.10.2019 11:00:00 - 22.10.2019 11:00:00 (CEST)
Date & Time tt [°C] td [°C] ff [km/h] ff [knt] fx [km/h] fx [knt] dd vv [km] sd [min] rr [mm]
22.10.2019 11:00:00 15,0 8,9 13 7 16 9 SSE 44 60 0,0
22.10.2019 10:00:00 14,3 5,7 13 7 18 10 SSE 53 60 0,0
22.10.2019 09:00:00 13,6 6,5 4 2 8 4 SSE 54 35 0,0
22.10.2019 08:00:00 - - - - - - - - - -
22.10.2019 07:00:00 - - - - - - - - - -
22.10.2019 06:00:00 13,7 3,2 8 4 13 7 S 64 0 0,0
22.10.2019 05:00:00 - - - - - - - - - -
22.10.2019 04:00:00 - - - - - - - - - -
22.10.2019 03:00:00 12,7 5,4 18 10 21 12 S 59 0 0,0
22.10.2019 02:00:00 - - - - - - - - - -
22.10.2019 01:00:00 13,5 6,5 15 8 20 11 S 75 0 0,0
22.10.2019 00:00:00 14,2 6,5 13 7 19 10 SSE 71 0 0,0
21.10.2019 23:00:00 14,3 4,7 16 9 21 12 S 69 0 0,0
21.10.2019 22:00:00 - - - - - - - - - -
21.10.2019 21:00:00 14,6 4,3 23 12 28 15 SSE 63 0 0,0
21.10.2019 20:00:00 - - - - - - - - - -
21.10.2019 19:00:00 - - - - - - - - - -
21.10.2019 18:00:00 13,9 5,9 16 9 20 11 SE 75 28 0,0
21.10.2019 17:00:00 - - - - - - - - - -
21.10.2019 16:00:00 17,3 6,7 5 3 17 9 SW 71 57 0,0
21.10.2019 15:00:00 - - - - - - - - - -
21.10.2019 14:00:00 17,6 5,2 6 3 16 9 WSW 75 52 0,0
21.10.2019 13:00:00 16,3 6,8 8 4 17 9 W 66 49 0,0
21.10.2019 12:00:00 16,8 5,9 8 5 32 17 SW 75 60 0,0
21.10.2019 11:00:00 15,9 5,3 19 10 27 14 SW 70 52 0,0
21.10.2019 10:00:00 15,0 4,7 19 10 28 15 S 60 19 0,0
21.10.2019 09:00:00 14,3 4,3 19 11 40 22 S 72 3 0,0
21.10.2019 08:00:00 14,5 4,1 24 13 40 22 SSW 75 0 0,0
21.10.2019 07:00:00 14,8 4,3 25 14 40 21 S 75 0 0,0
21.10.2019 06:00:00 14,9 3,9 32 18 42 23 S 66 0 0,0
21.10.2019 05:00:00 15,0 3,8 29 16 38 21 S 75 0 0,0
21.10.2019 04:00:00 15,2 3,7 27 15 40 22 S 73 0 0,0
21.10.2019 03:00:00 14,9 3,6 31 17 40 21 S 75 0 0,0
21.10.2019 02:00:00 15,1 3,3 28 15 44 24 S 63 0 0,0
21.10.2019 01:00:00 14,9 2,8 31 17 47 26 S 75 0 0,0
21.10.2019 00:00:00 14,6 2,4 31 17 50 27 S 75 0 0,0
20.10.2019 23:00:00 14,4 2,0 28 15 41 22 S 75 0 0,0
20.10.2019 22:00:00 13,9 3,3 26 14 40 22 S 75 0 0,0
20.10.2019 21:00:00 14,2 2,5 27 14 37 20 S 75 0 0,0
20.10.2019 20:00:00 13,4 3,0 28 15 38 21 SSE 75 0 0,0
20.10.2019 19:00:00 13,1 3,1 31 17 37 20 SSE 75 0 0,0
20.10.2019 18:00:00 13,6 2,7 28 15 37 20 SSE 75 9 0,0
20.10.2019 17:00:00 14,3 3,0 27 15 36 19 SSE 73 4 0,0
20.10.2019 16:00:00 14,8 2,5 26 14 35 19 SSE 75 11 0,0
20.10.2019 15:00:00 15,4 4,5 19 10 35 19 SSE 73 43 0,0
20.10.2019 14:00:00 16,2 3,4 23 12 39 21 S 51 60 0,0
20.10.2019 13:00:00 17,2 4,0 23 12 35 19 S 58 59 0,0
20.10.2019 12:00:00 17,0 3,6 24 13 39 21 SSE 70 60 0,0
20.10.2019 11:00:00 16,5 3,6 29 15 38 21 SSE 75 60 0,0
20.10.2019 10:00:00 15,3 3,0 26 14 35 19 S 75 60 0,0
20.10.2019 09:00:00 13,9 2,9 23 12 34 18 SSE 58 53 0,0
20.10.2019 08:00:00 11,5 2,8 23 13 39 21 S 75 0 0,0
20.10.2019 07:00:00 11,6 2,9 29 16 38 21 S 75 0 0,0
20.10.2019 06:00:00 11,7 2,9 28 15 38 21 S 75 0 0,0
20.10.2019 05:00:00 11,4 3,0 29 16 39 21 S 75 0 0,0
20.10.2019 04:00:00 11,3 3,1 29 16 41 22 S 75 0 0,0
20.10.2019 03:00:00 11,1 3,7 25 13 39 21 S 75 0 0,0
20.10.2019 02:00:00 10,9 4,3 28 15 39 21 S 75 0 0,0
20.10.2019 01:00:00 10,1 4,6 29 15 40 22 SSE 75 0 0,0
20.10.2019 00:00:00 9,5 2,7 28 15 42 23 SSE 75 0 0,0
19.10.2019 23:00:00 9,1 3,5 27 15 33 18 SE 75 0 0,0
19.10.2019 22:00:00 8,8 3,9 18 10 24 13 SE 75 0 0,0
19.10.2019 21:00:00 8,6 4,2 13 7 22 12 SE 67 0 0,0
19.10.2019 20:00:00 9,7 2,9 16 9 29 16 WSW 75 0 0,0
19.10.2019 19:00:00 9,8 3,3 16 9 28 15 SW 75 0 0,0
19.10.2019 18:00:00 9,2 3,7 11 6 21 11 SW 75 1 0,0
19.10.2019 17:00:00 6,7 4,2 7 4 27 15 NNW 75 1 0,0
19.10.2019 16:00:00 7,5 5,0 14 8 25 13 NW 75 27 0,0
19.10.2019 15:00:00 7,3 5,6 16 9 26 14 NNW 50 0 0,0
19.10.2019 14:00:00 8,2 6,9 18 10 27 14 NNW 15 0 0,0
19.10.2019 13:00:00 10,6 7,2 8 5 23 13 NW 28 44 0,0
19.10.2019 12:00:00 11,2 5,0 15 8 36 20 S 70 60 0,0
19.10.2019 11:00:00 11,0 5,1 23 13 33 18 SE 57 60 0,0
19.10.2019 10:00:00 9,6 4,7 20 11 29 16 SSE 57 30 0,0
19.10.2019 09:00:00 8,2 6,0 18 10 22 12 SSE 38 9 0,0
19.10.2019 08:00:00 7,4 4,7 14 8 24 13 S 69 0 0,0
19.10.2019 07:00:00 7,2 5,2 22 12 26 14 S 64 0 0,0
19.10.2019 06:00:00 7,2 5,4 18 10 22 12 S 54 0 0,0
19.10.2019 05:00:00 7,1 5,2 16 9 22 12 S 54 0 0,0
19.10.2019 04:00:00 7,1 5,4 14 7 22 12 S 57 0 0,0
19.10.2019 03:00:00 7,3 5,6 14 7 19 10 SSW 43 0 0,0
19.10.2019 02:00:00 6,8 6,5 18 10 24 13 SW 4,8 0 0,0
19.10.2019 01:00:00 6,8 6,6 23 12 27 15 SW 0,1 0 0,0
19.10.2019 00:00:00 6,9 6,3 22 12 27 15 SSW 11 0 0,0
18.10.2019 23:00:00 7,1 6,6 24 13 29 16 SSW 9 0 0,0
18.10.2019 22:00:00 7,2 6,6 23 12 29 16 SW 9 0 0,0
18.10.2019 21:00:00 7,8 6,4 21 11 36 20 SW 31 0 0,0
18.10.2019 20:00:00 8,4 6,1 25 14 46 25 SW 43 0 0,0
18.10.2019 19:00:00 8,6 5,7 23 13 36 19 SSW 74 0 0,0
18.10.2019 18:00:00 8,8 6,0 23 12 37 20 S 50 0 0,0
18.10.2019 17:00:00 9,2 6,3 24 13 36 19 S 47 10 0,0
18.10.2019 16:00:00 9,9 6,7 23 13 34 19 S 44 35 0,0
18.10.2019 15:00:00 10,6 5,9 14 8 31 17 S 56 55 0,0
18.10.2019 14:00:00 10,6 6,9 18 10 34 18 S 47 59 0,0
18.10.2019 13:00:00 11,0 6,2 19 10 30 16 S 75 60 0,0
18.10.2019 12:00:00 10,9 5,9 19 11 34 18 SW 72 60 0,0
18.10.2019 11:00:00 10,6 7,3 19 11 34 19 SW 75 57 0,0
18.10.2019 10:00:00 8,5 7,0 27 14 38 20 WSW 41 20 0,0
18.10.2019 09:00:00 7,4 6,8 31 17 40 21 WSW 17 0 0,0
18.10.2019 08:00:00 7,0 6,0 30 16 38 20 SW 33 0 0,0
18.10.2019 07:00:00 7,3 5,4 28 15 35 19 SW 61 0 0,0
18.10.2019 06:00:00 8,0 4,6 28 15 37 20 WSW 75 0 0,0
18.10.2019 05:00:00 7,7 6,0 26 14 35 19 WSW 67 0 0,0
18.10.2019 04:00:00 8,0 5,1 22 12 35 19 W 72 0 0,0
18.10.2019 03:00:00 7,7 3,9 28 15 41 22 W 41 0 0,0
18.10.2019 02:00:00 8,5 2,8 22 12 27 15 SW 75 0 0,0
18.10.2019 01:00:00 9,3 1,8 17 9 30 16 SSW 75 0 0,0
18.10.2019 00:00:00 9,0 2,8 24 13 31 17 SSW 75 0 0,0
17.10.2019 23:00:00 9,4 2,7 22 12 32 18 SSE 75 0 0,0
17.10.2019 22:00:00 9,5 2,0 26 14 34 19 SSE 75 0 0,0
17.10.2019 21:00:00 9,6 -2,4 25 14 30 16 SSE 75 0 0,0
17.10.2019 20:00:00 9,1 -2,6 18 10 20 11 SSE 75 0 0,0
17.10.2019 19:00:00 8,9 1,9 15 8 17 9 SE 75 8 0,0
17.10.2019 18:00:00 10,2 3,2 6 3 11 6 S 73 54 0,0
17.10.2019 17:00:00 11,6 2,1 7 4 20 11 SSW 59 60 0,0
17.10.2019 16:00:00 11,5 1,6 11 6 21 12 S 75 60 0,0
17.10.2019 15:00:00 12,4 2,3 9 5 22 12 SSW 75 60 0,0
17.10.2019 14:00:00 12,2 3,0 13 7 - - SSW 69 - 0,0
17.10.2019 13:00:00 11,3 1,3 - - - - - 69 - 0,0
17.10.2019 12:00:00 11,2 1,0 - - - - - 59 - 0,0
17.10.2019 11:00:00 10,5 1,7 - - 35 19 - 75 44 0,0
17.10.2019 10:00:00 7,8 0,9 25 13 37 20 SSW 75 60 0,0
17.10.2019 09:00:00 7,7 -1,0 24 13 37 20 SSW 75 36 0,0
17.10.2019 08:00:00 7,3 -1,6 25 13 35 19 SSW 75 0 0,0
17.10.2019 07:00:00 6,9 -0,9 29 16 37 20 SSW 75 0 0,0
17.10.2019 06:00:00 7,1 -0,4 27 15 36 19 SSW 75 0 0,0
17.10.2019 05:00:00 7,2 0,0 26 14 37 20 SSW 75 0 0,0
17.10.2019 04:00:00 6,7 0,5 26 14 39 21 SSW 75 0 0,0
17.10.2019 03:00:00 6,3 0,2 29 16 40 21 S 75 0 0,0
17.10.2019 02:00:00 5,7 0,7 24 13 35 19 SSW 74 0 0,0
17.10.2019 01:00:00 5,5 1,0 32 18 40 22 SW 75 0 0,0
17.10.2019 00:00:00 5,5 0,9 27 15 39 21 SSW 75 0 0,0
16.10.2019 23:00:00 4,9 1,0 24 13 46 25 SSW 68 0 0,0
16.10.2019 22:00:00 4,6 1,2 33 18 43 23 SSW 74 0 0,0
16.10.2019 21:00:00 4,4 1,6 22 12 34 19 S 62 0 0,0
16.10.2019 20:00:00 4,1 1,9 16 9 29 16 S 67 0 0,0
16.10.2019 19:00:00 4,1 2,3 15 8 30 16 SSW 61 3 0,0
16.10.2019 18:00:00 4,2 2,3 19 10 38 20 SSW 56 52 0,0
16.10.2019 17:00:00 4,5 2,8 23 12 39 21 SSW 59 10 0,0
16.10.2019 16:00:00 4,9 3,5 27 14 44 24 SW 65 33 0,0
16.10.2019 15:00:00 4,7 4,2 28 15 49 27 SW 65 25 0,0
16.10.2019 14:00:00 4,0 3,9 34 18 49 26 SW 0,1 1 0,0
16.10.2019 13:00:00 3,3 3,3 34 18 56 30 SW 0,1 0 0,0
16.10.2019 12:00:00 3,3 3,2 34 19 55 30 SW 0,1 0 0,0
16.10.2019 11:00:00 3,1 3,1 32 18 61 33 WSW 0,1 0 0,1

tt = Température de l'air
td = dewpoint
ff = Vitesse du vent
fx = gusts
dd = Direction du vent
vv = visibility
sd = Ensoleillement
rr = Quantités de précipitations

stations d'obs. à proximité